HISTORICAL SENSOR DATA

Sensor Data Report

DB LIVE
CURRENT TIME--:--:--
DEVICE NETWORK Gateway Status
13 ESP · realtime ~1s · history 60s
Weather WS-MOD-01
ONLINE
Actuator ACT-MOD-01
OFFLINE
Mainboard L3 MB-L3-01
ONLINE
Mainboard L5 MB-L5-01
ONLINE
Remote AC AC-REMOTE-01
ONLINE
PZEM L3-01 PWR-L3-01
OFFLINE
PZEM L3-02 PWR-L3-02
OFFLINE
PZEM L3-03 PWR-L3-03
OFFLINE
PZEM L3-04 PWR-L3-04
OFFLINE
PZEM L5-01 PWR-L5-01
ONLINE
PZEM L5-02 PWR-L5-02
ONLINE
PZEM L5-03 PWR-L5-03
OFFLINE
PZEM L5-04 PWR-L5-04
OFFLINE
REPORT FILTER

Periode & Sensor

DATABASE HISTORY
RESET
QUICK RANGE Hari ini 7 hari 30 hari
PERIODE07 Sep 2026sampai 07 Sep 2026
TOTAL DATA10,857sensor readings
MINIMUM0.00sesuai filter
AVERAGE34.74sesuai filter
MAXIMUM912.00sesuai filter
REPORT RESULT

Data Sensor

07/09/2026 — 07/09/2026 EXPORT CSV
NOTANGGALWAKTUDEVICECHANNELSENSORVALUEUNIT
1 07/09/2026 02:40:00 MB-L5-01Mainboard Lantai 5 L5-AI-05 Analog Input 5 3.05 V
2 07/09/2026 02:40:00 AC-REMOTE-01Remote AC AC-MODE AC Operating Mode 1.00 code
3 07/09/2026 02:40:00 MB-L3-01Mainboard Lantai 3 L3-RAD-02 Radiation 2 0.00 W/m²
4 07/09/2026 02:40:00 MB-L5-01Mainboard Lantai 5 L5-BGT-01 Black Globe Temperature 1 26.40 °C
5 07/09/2026 02:40:00 MB-L3-01Mainboard Lantai 3 L3-AI-05 Analog Input 5 3.12 V
6 07/09/2026 02:40:00 MB-L5-01Mainboard Lantai 5 L5-SHT-02-RH SHT20 2 Humidity 45.90 %RH
7 07/09/2026 02:40:00 WS-MOD-01Weather Station Module WS-WIND Kecepatan Angin 5.83 m/s
8 07/09/2026 02:40:00 PWR-L5-01Power Meter L5 PZEM 01 PZEM-L5-01-ENERGY PZEM L5-01 Energy 0.09 kWh
9 07/09/2026 02:40:00 MB-L5-01Mainboard Lantai 5 L5-AI-01 Analog Input 1 3.05 V
10 07/09/2026 02:40:00 MB-L3-01Mainboard Lantai 3 L3-SHT-02-RH SHT20 2 Humidity 45.80 %RH
11 07/09/2026 02:40:00 MB-L5-01Mainboard Lantai 5 L5-LUX-03 Illuminance / LUX 3 0.20 lux
12 07/09/2026 02:40:00 MB-L3-01Mainboard Lantai 3 L3-AI-01 Analog Input 1 3.12 V
13 07/09/2026 02:40:00 PWR-L5-02Power Meter L5 PZEM 02 PZEM-L5-02-POWER PZEM L5-02 Active Power 0.00 W
14 07/09/2026 02:40:00 MB-L5-01Mainboard Lantai 5 L5-ST-01 Surface Temperature 1 23.20 °C
15 07/09/2026 02:40:00 MB-L5-01Mainboard Lantai 5 L5-AI-06 Analog Input 6 3.05 V
16 07/09/2026 02:40:00 AC-REMOTE-01Remote AC AC-FAN AC Fan Speed 0.00 code
17 07/09/2026 02:40:00 MB-L3-01Mainboard Lantai 3 L3-LUX-01 Illuminance / LUX 1 0.20 lux
18 07/09/2026 02:40:00 MB-L5-01Mainboard Lantai 5 L5-BGT-02 Black Globe Temperature 2 26.20 °C
19 07/09/2026 02:40:00 MB-L3-01Mainboard Lantai 3 L3-AI-06 Analog Input 6 3.12 V
20 07/09/2026 02:40:00 MB-L5-01Mainboard Lantai 5 L5-SHT-03-T SHT20 3 Temperature 28.40 °C
21 07/09/2026 02:40:00 WS-MOD-01Weather Station Module WS-TEMP Suhu Udara 18.70 °C
22 07/09/2026 02:40:00 PWR-L5-01Power Meter L5 PZEM 01 PZEM-L5-01-FREQ PZEM L5-01 Frequency 50.00 Hz
23 07/09/2026 02:40:00 MB-L5-01Mainboard Lantai 5 L5-LUX-06 Illuminance / LUX 6 0.10 lux
24 07/09/2026 02:40:00 MB-L5-01Mainboard Lantai 5 L5-AI-02 Analog Input 2 3.05 V
25 07/09/2026 02:40:00 MB-L5-01Mainboard Lantai 5 L5-LUX-04 Illuminance / LUX 4 0.10 lux
26 07/09/2026 02:40:00 MB-L3-01Mainboard Lantai 3 L3-SHT-03-T SHT20 3 Temperature 28.60 °C
27 07/09/2026 02:40:00 MB-L3-01Mainboard Lantai 3 L3-AI-02 Analog Input 2 3.12 V
28 07/09/2026 02:40:00 PWR-L5-02Power Meter L5 PZEM 02 PZEM-L5-02-ENERGY PZEM L5-02 Energy 0.04 kWh
29 07/09/2026 02:40:00 MB-L5-01Mainboard Lantai 5 L5-ST-02 Surface Temperature 2 22.30 °C
30 07/09/2026 02:40:00 PWR-L5-01Power Meter L5 PZEM 01 PZEM-L5-01-VOLT PZEM L5-01 Voltage 226.90 V
31 07/09/2026 02:40:00 MB-L5-01Mainboard Lantai 5 L5-SHT-01-T SHT20 1 Temperature 28.20 °C
32 07/09/2026 02:40:00 MB-L3-01Mainboard Lantai 3 L3-LUX-02 Illuminance / LUX 2 0.20 lux
33 07/09/2026 02:40:00 MB-L5-01Mainboard Lantai 5 L5-BGT-03 Black Globe Temperature 3 26.00 °C
34 07/09/2026 02:40:00 MB-L3-01Mainboard Lantai 3 L3-SHT-01-T SHT20 1 Temperature 28.20 °C
35 07/09/2026 02:40:00 MB-L5-01Mainboard Lantai 5 L5-SHT-03-RH SHT20 3 Humidity 46.50 %RH
36 07/09/2026 02:40:00 WS-MOD-01Weather Station Module WS-RH Kelembapan Udara 80.50 %RH
37 07/09/2026 02:40:00 PWR-L5-01Power Meter L5 PZEM 01 PZEM-L5-01-PF PZEM L5-01 Power Factor 0.38
38 07/09/2026 02:40:00 MB-L5-01Mainboard Lantai 5 L5-AI-03 Analog Input 3 3.05 V
39 07/09/2026 02:40:00 AC-REMOTE-01Remote AC AC-POWER AC Power State 1.00 state
40 07/09/2026 02:40:00 MB-L3-01Mainboard Lantai 3 L3-SHT-03-RH SHT20 3 Humidity 45.80 %RH
41 07/09/2026 02:40:00 MB-L5-01Mainboard Lantai 5 L5-HFT-01 Heat Flow Temperature 1 23.10 °C
42 07/09/2026 02:40:00 MB-L3-01Mainboard Lantai 3 L3-AI-03 Analog Input 3 3.12 V
43 07/09/2026 02:40:00 PWR-L5-02Power Meter L5 PZEM 02 PZEM-L5-02-FREQ PZEM L5-02 Frequency 50.00 Hz
44 07/09/2026 02:40:00 PWR-L5-01Power Meter L5 PZEM 01 PZEM-L5-01-CURR PZEM L5-01 Current 0.12 A
45 07/09/2026 02:40:00 MB-L5-01Mainboard Lantai 5 L5-SHT-01-RH SHT20 1 Humidity 47.00 %RH
46 07/09/2026 02:40:00 MB-L3-01Mainboard Lantai 3 L3-LUX-03 Illuminance / LUX 3 0.20 lux
47 07/09/2026 02:40:00 MB-L3-01Mainboard Lantai 3 L3-LUX-05 Illuminance / LUX 5 0.30 lux
48 07/09/2026 02:40:00 MB-L3-01Mainboard Lantai 3 L3-SHT-01-RH SHT20 1 Humidity 46.50 %RH
49 07/09/2026 02:40:00 MB-L5-01Mainboard Lantai 5 L5-LUX-01 Illuminance / LUX 1 0.00 lux
50 07/09/2026 02:40:00 MB-L5-01Mainboard Lantai 5 L5-RAD-01 Radiation 1 1.00 W/m²
51 07/09/2026 02:40:00 WS-MOD-01Weather Station Module WS-PRES Tekanan Udara 910.00 hPa
52 07/09/2026 02:40:00 PWR-L5-02Power Meter L5 PZEM 02 PZEM-L5-02-VOLT PZEM L5-02 Voltage 226.80 V
53 07/09/2026 02:40:00 MB-L5-01Mainboard Lantai 5 L5-AI-04 Analog Input 4 3.05 V
54 07/09/2026 02:40:00 AC-REMOTE-01Remote AC AC-SETPOINT AC Set Temperature 23.00 °C
55 07/09/2026 02:40:00 MB-L3-01Mainboard Lantai 3 L3-RAD-01 Radiation 1 1.00 W/m²
56 07/09/2026 02:40:00 MB-L5-01Mainboard Lantai 5 L5-HFT-02 Heat Flow Temperature 2 22.00 °C
57 07/09/2026 02:40:00 MB-L3-01Mainboard Lantai 3 L3-AI-04 Analog Input 4 3.12 V
58 07/09/2026 02:40:00 PWR-L5-02Power Meter L5 PZEM 02 PZEM-L5-02-PF PZEM L5-02 Power Factor 0.00
59 07/09/2026 02:40:00 PWR-L5-01Power Meter L5 PZEM 01 PZEM-L5-01-POWER PZEM L5-01 Active Power 10.70 W
60 07/09/2026 02:40:00 MB-L5-01Mainboard Lantai 5 L5-SHT-02-T SHT20 2 Temperature 28.70 °C
61 07/09/2026 02:40:00 MB-L3-01Mainboard Lantai 3 L3-LUX-04 Illuminance / LUX 4 0.10 lux
62 07/09/2026 02:40:00 MB-L3-01Mainboard Lantai 3 L3-LUX-06 Illuminance / LUX 6 0.30 lux
63 07/09/2026 02:40:00 MB-L3-01Mainboard Lantai 3 L3-SHT-02-T SHT20 2 Temperature 28.50 °C
64 07/09/2026 02:40:00 MB-L5-01Mainboard Lantai 5 L5-LUX-02 Illuminance / LUX 2 0.10 lux
65 07/09/2026 02:40:00 MB-L5-01Mainboard Lantai 5 L5-RAD-02 Radiation 2 1.00 W/m²
66 07/09/2026 02:40:00 WS-MOD-01Weather Station Module WS-DIR Arah Angin 78.00 °
67 07/09/2026 02:40:00 PWR-L5-02Power Meter L5 PZEM 02 PZEM-L5-02-CURR PZEM L5-02 Current 0.00 A
68 07/09/2026 02:39:00 MB-L5-01Mainboard Lantai 5 L5-AI-06 Analog Input 6 3.05 V
69 07/09/2026 02:39:00 AC-REMOTE-01Remote AC AC-FAN AC Fan Speed 0.00 code
70 07/09/2026 02:39:00 MB-L3-01Mainboard Lantai 3 L3-LUX-01 Illuminance / LUX 1 0.20 lux
71 07/09/2026 02:39:00 MB-L5-01Mainboard Lantai 5 L5-BGT-02 Black Globe Temperature 2 26.30 °C
72 07/09/2026 02:39:00 MB-L3-01Mainboard Lantai 3 L3-AI-06 Analog Input 6 3.12 V
73 07/09/2026 02:39:00 MB-L5-01Mainboard Lantai 5 L5-SHT-03-T SHT20 3 Temperature 28.50 °C
74 07/09/2026 02:39:00 WS-MOD-01Weather Station Module WS-TEMP Suhu Udara 18.70 °C
75 07/09/2026 02:39:00 PWR-L5-01Power Meter L5 PZEM 01 PZEM-L5-01-FREQ PZEM L5-01 Frequency 50.00 Hz
76 07/09/2026 02:39:00 MB-L5-01Mainboard Lantai 5 L5-LUX-05 Illuminance / LUX 5 0.10 lux
77 07/09/2026 02:39:00 MB-L5-01Mainboard Lantai 5 L5-LUX-06 Illuminance / LUX 6 0.10 lux
78 07/09/2026 02:39:00 MB-L5-01Mainboard Lantai 5 L5-AI-02 Analog Input 2 3.05 V
79 07/09/2026 02:39:00 MB-L5-01Mainboard Lantai 5 L5-LUX-04 Illuminance / LUX 4 0.10 lux
80 07/09/2026 02:39:00 MB-L3-01Mainboard Lantai 3 L3-SHT-03-T SHT20 3 Temperature 28.60 °C
81 07/09/2026 02:39:00 MB-L3-01Mainboard Lantai 3 L3-AI-02 Analog Input 2 3.12 V
82 07/09/2026 02:39:00 PWR-L5-02Power Meter L5 PZEM 02 PZEM-L5-02-ENERGY PZEM L5-02 Energy 0.04 kWh
83 07/09/2026 02:39:00 MB-L5-01Mainboard Lantai 5 L5-ST-02 Surface Temperature 2 22.30 °C
84 07/09/2026 02:39:00 PWR-L5-01Power Meter L5 PZEM 01 PZEM-L5-01-VOLT PZEM L5-01 Voltage 226.90 V
85 07/09/2026 02:39:00 MB-L5-01Mainboard Lantai 5 L5-SHT-01-T SHT20 1 Temperature 28.20 °C
86 07/09/2026 02:39:00 MB-L3-01Mainboard Lantai 3 L3-LUX-02 Illuminance / LUX 2 0.20 lux
87 07/09/2026 02:39:00 MB-L5-01Mainboard Lantai 5 L5-BGT-03 Black Globe Temperature 3 26.00 °C
88 07/09/2026 02:39:00 MB-L3-01Mainboard Lantai 3 L3-SHT-01-T SHT20 1 Temperature 28.20 °C
89 07/09/2026 02:39:00 MB-L5-01Mainboard Lantai 5 L5-SHT-03-RH SHT20 3 Humidity 46.50 %RH
90 07/09/2026 02:39:00 WS-MOD-01Weather Station Module WS-RH Kelembapan Udara 80.40 %RH
91 07/09/2026 02:39:00 PWR-L5-01Power Meter L5 PZEM 01 PZEM-L5-01-PF PZEM L5-01 Power Factor 0.37
92 07/09/2026 02:39:00 MB-L5-01Mainboard Lantai 5 L5-AI-03 Analog Input 3 3.05 V
93 07/09/2026 02:39:00 AC-REMOTE-01Remote AC AC-POWER AC Power State 1.00 state
94 07/09/2026 02:39:00 MB-L3-01Mainboard Lantai 3 L3-SHT-03-RH SHT20 3 Humidity 45.80 %RH
95 07/09/2026 02:39:00 MB-L5-01Mainboard Lantai 5 L5-HFT-01 Heat Flow Temperature 1 23.10 °C
96 07/09/2026 02:39:00 MB-L3-01Mainboard Lantai 3 L3-AI-03 Analog Input 3 3.12 V
97 07/09/2026 02:39:00 PWR-L5-02Power Meter L5 PZEM 02 PZEM-L5-02-FREQ PZEM L5-02 Frequency 50.00 Hz
98 07/09/2026 02:39:00 PWR-L5-01Power Meter L5 PZEM 01 PZEM-L5-01-CURR PZEM L5-01 Current 0.13 A
99 07/09/2026 02:39:00 MB-L5-01Mainboard Lantai 5 L5-SHT-01-RH SHT20 1 Humidity 47.00 %RH
100 07/09/2026 02:39:00 MB-L3-01Mainboard Lantai 3 L3-LUX-03 Illuminance / LUX 3 0.20 lux
Menampilkan maksimal 100 data per halaman
PAGE 1 NEXT →